createdAt,value
2018-10-17T00:01:51.464Z,92.10
2018-10-17T00:04:19.965Z,92.10
2018-10-17T00:06:48.485Z,91.70
2018-10-17T00:09:16.909Z,92.00
2018-10-17T00:11:45.399Z,91.90
2018-10-17T00:14:13.874Z,92.00
2018-10-17T00:16:42.324Z,91.60
2018-10-17T00:19:10.906Z,91.90
2018-10-17T00:21:39.272Z,92.10
2018-10-17T00:24:07.729Z,92.10
2018-10-17T00:26:36.218Z,91.90
2018-10-17T00:29:04.842Z,92.30
2018-10-17T00:31:33.283Z,92.80
2018-10-17T00:34:01.756Z,93.10
2018-10-17T00:36:30.212Z,93.40
2018-10-17T00:38:58.668Z,93.60
2018-10-17T00:41:27.145Z,93.30
2018-10-17T00:43:55.577Z,93.20
2018-10-17T00:46:24.108Z,93.40
2018-10-17T00:48:52.626Z,93.50
2018-10-17T00:51:21.057Z,93.30
2018-10-17T00:53:49.537Z,93.20
2018-10-17T00:56:17.963Z,93.00
2018-10-17T00:59:00.820Z,94.10
2018-10-17T01:01:29.284Z,94.00
2018-10-17T01:03:57.728Z,94.00
2018-10-17T01:06:26.168Z,93.80
2018-10-17T01:08:54.640Z,94.10
2018-10-17T01:11:23.090Z,93.80
2018-10-17T01:13:51.557Z,93.50
2018-10-17T01:16:20.694Z,93.70
2018-10-17T01:18:49.114Z,93.70
2018-10-17T01:21:17.581Z,93.90
2018-10-17T01:23:46.026Z,94.10
2018-10-17T01:26:14.464Z,94.60
2018-10-17T01:28:42.965Z,94.70
2018-10-17T01:31:11.465Z,94.50
2018-10-17T01:33:39.948Z,94.70
2018-10-17T01:36:08.439Z,94.90
2018-10-17T01:38:36.877Z,95.00
2018-10-17T01:41:05.740Z,95.00
2018-10-17T01:43:34.168Z,94.80
2018-10-17T01:46:02.616Z,94.80
2018-10-17T01:48:31.066Z,94.80
2018-10-17T01:50:59.888Z,95.00
2018-10-17T01:53:28.549Z,94.80
2018-10-17T01:55:57.028Z,94.90
2018-10-17T01:58:25.632Z,95.10
2018-10-17T02:00:54.127Z,95.30
2018-10-17T02:03:22.599Z,95.30
2018-10-17T02:05:51.104Z,95.50
2018-10-17T02:08:19.645Z,95.50
2018-10-17T02:10:48.151Z,95.60
2018-10-17T02:13:19.931Z,95.60
2018-10-17T02:15:48.981Z,95.70
2018-10-17T02:18:17.691Z,95.50
2018-10-17T02:20:46.182Z,95.60
2018-10-17T02:23:14.678Z,95.50
2018-10-17T02:25:43.160Z,95.60
2018-10-17T02:28:11.599Z,95.90
2018-10-17T02:30:40.060Z,96.80
2018-10-17T02:33:08.598Z,96.40
2018-10-17T02:35:37.439Z,96.60
2018-10-17T02:38:06.168Z,96.40
2018-10-17T02:40:35.261Z,96.40
2018-10-17T02:43:03.817Z,96.50
2018-10-17T02:45:32.829Z,96.60
2018-10-17T02:48:01.558Z,96.60
2018-10-17T02:50:30.068Z,96.60
2018-10-17T02:52:58.543Z,96.70
2018-10-17T02:55:27.014Z,96.90
2018-10-17T02:57:55.503Z,97.00
2018-10-17T03:00:24.016Z,97.10
2018-10-17T03:02:52.465Z,97.10
2018-10-17T03:05:21.021Z,97.20
2018-10-17T03:07:49.443Z,97.30
2018-10-17T03:10:17.916Z,97.50
2018-10-17T03:12:46.407Z,97.70
2018-10-17T03:15:14.850Z,97.90
2018-10-17T03:17:43.340Z,98.00
2018-10-17T03:20:12.020Z,98.00
2018-10-17T03:22:40.605Z,98.00
2018-10-17T03:25:09.872Z,98.00
2018-10-17T03:27:38.312Z,98.00
2018-10-17T03:30:06.811Z,98.00
2018-10-17T03:32:35.238Z,98.20
2018-10-17T03:35:03.739Z,98.30
2018-10-17T03:37:32.199Z,98.20
2018-10-17T03:40:00.668Z,98.30
2018-10-17T03:42:29.167Z,98.60
2018-10-17T03:44:57.643Z,99.00
2018-10-17T03:47:26.090Z,98.90
2018-10-17T03:49:54.612Z,99.10
2018-10-17T03:52:23.041Z,99.10
2018-10-17T03:54:51.530Z,99.20
2018-10-17T03:57:20.002Z,99.20
2018-10-17T03:59:48.582Z,99.20
2018-10-17T04:02:16.948Z,99.40
2018-10-17T04:04:45.431Z,99.80
2018-10-17T04:07:13.913Z,99.80
2018-10-17T04:09:42.472Z,99.80
2018-10-17T04:12:10.930Z,99.80
2018-10-17T04:14:39.384Z,99.60
2018-10-17T04:17:07.882Z,99.50
2018-10-17T04:19:36.359Z,99.50
2018-10-17T04:22:04.857Z,99.40
2018-10-17T04:24:33.460Z,99.40
2018-10-17T04:27:01.920Z,99.40
2018-10-17T04:29:30.364Z,99.40
2018-10-17T04:31:58.826Z,99.40
2018-10-17T04:34:27.281Z,99.60
2018-10-17T04:36:55.726Z,99.80
2018-10-17T04:39:24.220Z,99.50
2018-10-17T04:41:52.667Z,99.50
2018-10-17T04:44:21.157Z,99.40
2018-10-17T04:46:49.628Z,99.50
2018-10-17T04:49:18.159Z,99.70
2018-10-17T04:51:46.534Z,99.90
2018-10-17T04:54:15.045Z,99.90
2018-10-17T04:56:43.493Z,99.90
2018-10-17T04:59:12.004Z,99.90
2018-10-17T05:01:40.415Z,99.90
2018-10-17T05:04:08.845Z,99.90
2018-10-17T05:06:37.331Z,99.90
2018-10-17T05:09:08.989Z,99.90
2018-10-17T05:11:37.494Z,99.90
2018-10-17T05:14:06.572Z,99.90
2018-10-17T05:16:35.398Z,99.90
2018-10-17T05:19:04.025Z,99.90
2018-10-17T05:21:32.406Z,99.90
2018-10-17T05:24:00.849Z,99.90
2018-10-17T05:26:29.308Z,99.90
2018-10-17T05:28:57.784Z,99.90
2018-10-17T05:31:27.589Z,99.90
2018-10-17T05:33:56.021Z,99.90
2018-10-17T05:36:24.465Z,99.90
2018-10-17T05:38:52.926Z,99.90
2018-10-17T05:41:21.380Z,99.90
2018-10-17T05:43:49.947Z,99.90
2018-10-17T05:46:18.453Z,99.90
2018-10-17T05:48:46.929Z,99.90
2018-10-17T05:51:15.629Z,99.90
2018-10-17T05:53:44.167Z,99.90
2018-10-17T05:56:12.669Z,99.90
2018-10-17T05:58:41.138Z,99.90
2018-10-17T06:01:09.729Z,99.90
2018-10-17T06:03:38.130Z,99.90
2018-10-17T06:06:06.685Z,99.90
2018-10-17T06:08:35.215Z,99.90
2018-10-17T06:11:03.770Z,99.90
2018-10-17T06:13:32.214Z,99.90
2018-10-17T06:16:00.722Z,99.90
2018-10-17T06:18:29.213Z,99.90
2018-10-17T06:20:57.676Z,99.90
2018-10-17T06:23:26.134Z,99.90
2018-10-17T06:25:54.772Z,99.90
2018-10-17T06:28:23.311Z,99.90
2018-10-17T06:30:51.796Z,99.90
2018-10-17T06:33:20.296Z,99.90
2018-10-17T06:35:48.801Z,99.90
2018-10-17T06:38:17.585Z,99.90
2018-10-17T06:40:46.090Z,99.90
2018-10-17T06:43:14.607Z,99.90
2018-10-17T06:45:43.086Z,99.90
2018-10-17T06:48:11.614Z,99.90
2018-10-17T06:50:40.096Z,99.90
2018-10-17T06:53:08.661Z,99.90
2018-10-17T06:55:37.185Z,99.90
2018-10-17T06:58:05.753Z,99.90
2018-10-17T07:00:34.242Z,99.90
2018-10-17T07:03:02.743Z,99.90
2018-10-17T07:05:31.230Z,99.90
2018-10-17T07:07:59.750Z,99.90
2018-10-17T07:10:28.257Z,99.90
2018-10-17T07:12:56.780Z,99.90
2018-10-17T07:15:25.287Z,99.90
2018-10-17T07:17:53.765Z,99.90
2018-10-17T07:20:22.253Z,99.90
2018-10-17T07:22:50.722Z,99.90
2018-10-17T07:25:19.204Z,99.90
2018-10-17T07:27:47.886Z,99.90
2018-10-17T07:30:16.620Z,99.90
2018-10-17T07:32:45.140Z,99.90
2018-10-17T07:35:13.695Z,99.90
2018-10-17T07:37:42.199Z,99.90
2018-10-17T07:40:10.717Z,99.90
2018-10-17T07:42:39.213Z,99.90
2018-10-17T07:45:07.939Z,99.90
2018-10-17T07:47:36.404Z,99.90
2018-10-17T07:50:05.420Z,99.90
2018-10-17T07:52:33.911Z,99.90
2018-10-17T07:55:02.393Z,99.90
2018-10-17T07:57:30.877Z,99.90
2018-10-17T07:59:59.463Z,99.90
2018-10-17T08:02:27.919Z,99.90
2018-10-17T08:04:56.377Z,99.90
2018-10-17T08:07:24.852Z,99.90
2018-10-17T08:09:53.312Z,99.90
2018-10-17T08:12:21.914Z,99.90
2018-10-17T08:14:50.385Z,99.90
2018-10-17T08:17:18.915Z,99.90
2018-10-17T08:19:47.431Z,99.90
2018-10-17T08:22:15.945Z,99.90
2018-10-17T08:24:44.432Z,99.90
2018-10-17T08:27:12.942Z,99.90
2018-10-17T08:29:41.436Z,99.90
2018-10-17T08:32:10.472Z,99.90
2018-10-17T08:34:38.968Z,99.90
2018-10-17T08:37:07.824Z,99.90
2018-10-17T08:39:36.041Z,99.90
2018-10-17T08:42:04.986Z,99.90
2018-10-17T08:44:33.494Z,99.90
2018-10-17T08:47:01.956Z,99.90
2018-10-17T08:49:30.516Z,99.90
2018-10-17T08:51:59.089Z,99.90
2018-10-17T08:54:27.637Z,99.90
2018-10-17T08:56:56.125Z,99.90
2018-10-17T08:59:24.629Z,99.90
2018-10-17T09:01:53.205Z,99.90
2018-10-17T09:04:21.653Z,99.90
2018-10-17T09:06:50.120Z,99.90
2018-10-17T09:09:18.582Z,99.90
2018-10-17T09:11:47.052Z,99.90
2018-10-17T09:14:15.620Z,99.90
2018-10-17T09:16:44.133Z,99.90
2018-10-17T09:19:12.590Z,99.90
2018-10-17T09:21:42.162Z,99.90
2018-10-17T09:24:11.117Z,99.90
2018-10-17T09:26:39.556Z,99.90
2018-10-17T09:29:08.032Z,99.90
2018-10-17T09:31:36.496Z,99.90
2018-10-17T09:34:04.984Z,99.90
2018-10-17T09:36:33.493Z,99.90
2018-10-17T09:39:01.986Z,99.90
2018-10-17T09:41:30.481Z,99.90
2018-10-17T09:43:59.015Z,99.90
2018-10-17T09:46:27.496Z,99.90
2018-10-17T09:48:55.956Z,99.90
2018-10-17T09:51:24.536Z,99.90
2018-10-17T09:53:53.176Z,99.90
2018-10-17T09:56:21.708Z,99.90
2018-10-17T09:58:50.233Z,99.90
2018-10-17T10:01:24.231Z,99.90
2018-10-17T10:03:53.157Z,99.90
2018-10-17T10:06:21.632Z,99.90
2018-10-17T10:08:50.225Z,99.90
2018-10-17T10:11:18.881Z,99.40
2018-10-17T10:13:47.621Z,98.80
2018-10-17T10:16:16.160Z,98.00
2018-10-17T10:18:44.681Z,97.60
2018-10-17T10:21:13.228Z,97.60
2018-10-17T10:23:41.854Z,96.80
2018-10-17T10:26:10.399Z,96.90
2018-10-17T10:28:38.991Z,97.10
2018-10-17T10:31:07.471Z,96.80
2018-10-17T10:33:35.954Z,96.90
2018-10-17T10:36:05.206Z,96.60
2018-10-17T10:38:33.628Z,96.70
2018-10-17T10:41:02.160Z,96.50
2018-10-17T10:43:30.657Z,96.30
2018-10-17T10:45:59.130Z,96.10
2018-10-17T10:48:28.180Z,96.50
2018-10-17T10:50:56.736Z,97.20
2018-10-17T10:53:25.245Z,97.50
2018-10-17T10:55:53.811Z,96.90
2018-10-17T10:58:22.336Z,96.00
2018-10-17T11:00:50.864Z,95.30
2018-10-17T11:03:19.361Z,95.30
2018-10-17T11:05:48.043Z,94.10
2018-10-17T11:08:16.412Z,94.20
2018-10-17T11:10:44.863Z,94.40
2018-10-17T11:13:13.335Z,93.30
2018-10-17T11:15:41.822Z,93.80
2018-10-17T11:18:10.305Z,93.50
2018-10-17T11:20:38.816Z,92.80
2018-10-17T11:23:07.374Z,91.80
2018-10-17T11:25:35.821Z,91.30
2018-10-17T11:28:04.396Z,90.70
2018-10-17T11:30:33.103Z,92.00
2018-10-17T11:33:02.302Z,90.40
2018-10-17T11:35:30.645Z,90.00
2018-10-17T11:37:59.216Z,86.70
2018-10-17T11:40:27.637Z,85.70
2018-10-17T11:42:56.150Z,83.90
2018-10-17T11:45:24.756Z,83.40
2018-10-17T11:47:53.314Z,83.40
2018-10-17T11:50:21.778Z,83.40
2018-10-17T11:52:50.235Z,83.10
2018-10-17T11:55:18.702Z,80.50
2018-10-17T11:57:47.282Z,84.00
2018-10-17T12:00:16.300Z,81.40
2018-10-17T12:02:44.849Z,82.70
2018-10-17T12:05:15.661Z,83.50
2018-10-17T12:07:44.148Z,83.40
2018-10-17T12:10:12.683Z,83.10
2018-10-17T12:12:41.131Z,82.50
2018-10-17T12:15:13.504Z,81.70
2018-10-17T12:17:42.119Z,80.30
2018-10-17T12:20:12.612Z,80.10
2018-10-17T12:22:41.917Z,77.80
2018-10-17T12:25:11.109Z,76.10
2018-10-17T12:27:39.647Z,76.00
2018-10-17T12:30:10.251Z,77.30
2018-10-17T12:32:38.765Z,77.10
2018-10-17T12:35:07.539Z,78.40
2018-10-17T12:37:36.929Z,80.10
2018-10-17T12:40:06.330Z,80.10
2018-10-17T12:42:34.827Z,79.90
2018-10-17T12:45:03.449Z,79.20
2018-10-17T12:47:31.846Z,80.50
2018-10-17T12:50:00.582Z,80.00
2018-10-17T12:52:29.605Z,79.80
2018-10-17T12:54:57.961Z,81.60
2018-10-17T12:57:26.499Z,83.10
2018-10-17T12:59:55.061Z,84.00
2018-10-17T13:02:23.566Z,84.00
2018-10-17T13:04:53.466Z,84.70
2018-10-17T13:07:21.936Z,85.10
2018-10-17T13:09:50.389Z,84.80
2018-10-17T13:12:18.891Z,84.40
2018-10-17T13:14:48.025Z,85.30
2018-10-17T13:17:16.598Z,84.40
2018-10-17T13:19:45.015Z,83.50
2018-10-17T13:23:42.898Z,84.80
2018-10-17T13:26:11.389Z,85.20
2018-10-17T13:28:39.879Z,85.10
2018-10-17T13:31:08.447Z,86.20
2018-10-17T13:33:36.877Z,88.30
2018-10-17T13:36:05.390Z,89.30
2018-10-17T13:38:33.926Z,87.50
2018-10-17T13:41:02.402Z,86.20
2018-10-17T13:43:30.861Z,84.80
2018-10-17T13:45:59.331Z,82.60
2018-10-17T13:48:27.783Z,84.50
2018-10-17T13:50:56.341Z,83.30
2018-10-17T13:53:24.770Z,81.90
2018-10-17T13:55:53.214Z,83.70
2018-10-17T13:58:21.822Z,83.50
2018-10-17T14:00:50.229Z,86.30
2018-10-17T14:03:18.744Z,87.20
2018-10-17T14:05:48.585Z,87.20
2018-10-17T14:08:17.055Z,85.90
2018-10-17T14:10:45.638Z,85.10
2018-10-17T14:13:14.205Z,83.70
2018-10-17T14:15:42.644Z,86.10
2018-10-17T14:18:11.137Z,85.90
2018-10-17T14:20:39.574Z,86.90
2018-10-17T14:23:08.074Z,86.60
2018-10-17T14:25:36.569Z,86.70
2018-10-17T14:28:05.349Z,87.40
2018-10-17T14:30:33.850Z,88.50
2018-10-17T14:33:02.419Z,88.50
2018-10-17T14:35:30.876Z,89.90
2018-10-17T14:37:59.570Z,90.30
2018-10-17T14:40:27.932Z,90.10
2018-10-17T14:42:56.380Z,90.30
2018-10-17T14:45:24.843Z,90.30
2018-10-17T14:47:53.340Z,90.90
2018-10-17T14:50:21.832Z,90.70
2018-10-17T14:52:50.353Z,90.90
2018-10-17T14:55:18.838Z,90.90
2018-10-17T14:57:47.414Z,91.00
2018-10-17T15:00:16.267Z,91.20
2018-10-17T15:02:45.192Z,91.70
2018-10-17T15:05:13.708Z,91.20
2018-10-17T15:07:42.984Z,91.30
2018-10-17T15:10:11.508Z,92.10
2018-10-17T15:12:40.759Z,92.00
2018-10-17T15:15:10.848Z,91.90
2018-10-17T15:17:39.667Z,91.60
2018-10-17T15:20:08.569Z,91.70
2018-10-17T15:22:37.345Z,92.20
2018-10-17T15:25:06.593Z,92.30
2018-10-17T15:27:35.113Z,92.10
2018-10-17T15:30:03.762Z,92.10
2018-10-17T15:32:32.259Z,91.80
2018-10-17T15:35:00.760Z,91.80
2018-10-17T15:37:29.295Z,91.90
2018-10-17T15:39:57.921Z,91.80
2018-10-17T15:42:26.433Z,92.20
2018-10-17T15:44:55.074Z,92.20
2018-10-17T15:47:23.562Z,92.10
2018-10-17T15:49:52.069Z,92.00
2018-10-17T15:52:20.548Z,91.80
2018-10-17T15:54:49.018Z,92.20
2018-10-17T15:57:17.555Z,92.40
2018-10-17T15:59:45.956Z,92.50
2018-10-17T16:02:14.656Z,92.30
2018-10-17T16:04:43.081Z,92.70
2018-10-17T16:07:11.567Z,93.00
2018-10-17T16:09:40.017Z,92.80
2018-10-17T16:12:08.525Z,92.90
2018-10-17T16:14:37.000Z,92.90
2018-10-17T16:17:05.591Z,92.80
2018-10-17T16:19:34.070Z,93.30
2018-10-17T16:22:02.546Z,93.20
2018-10-17T16:24:31.225Z,93.00
2018-10-17T16:27:00.032Z,92.90
2018-10-17T16:29:28.610Z,93.20
2018-10-17T16:31:57.209Z,93.00
2018-10-17T16:34:25.635Z,93.10
2018-10-17T16:36:54.121Z,93.80
2018-10-17T16:39:23.450Z,94.00
2018-10-17T16:41:51.985Z,94.60
2018-10-17T16:44:20.545Z,95.40
2018-10-17T16:46:49.094Z,95.60
2018-10-17T16:49:17.609Z,95.80
2018-10-17T16:51:46.113Z,95.80
2018-10-17T16:54:14.670Z,96.30
2018-10-17T16:56:43.089Z,96.50
2018-10-17T16:59:11.575Z,96.70
2018-10-17T17:01:40.054Z,96.70
2018-10-17T17:04:08.636Z,96.70
2018-10-17T17:06:37.104Z,97.10
2018-10-17T17:09:08.105Z,97.30
2018-10-17T17:11:36.589Z,97.90
2018-10-17T17:14:06.035Z,97.60
2018-10-17T17:16:35.297Z,97.50
2018-10-17T17:19:03.813Z,97.70
2018-10-17T17:21:32.301Z,98.00
2018-10-17T17:24:00.908Z,98.10
2018-10-17T17:26:29.379Z,98.00
2018-10-17T17:28:57.914Z,98.20
2018-10-17T17:31:26.448Z,97.90
2018-10-17T17:33:55.847Z,97.90
2018-10-17T17:36:24.386Z,98.00
2018-10-17T17:38:52.893Z,98.00
2018-10-17T17:41:21.368Z,97.90
2018-10-17T17:43:49.876Z,98.30
2018-10-17T17:46:18.461Z,98.20
2018-10-17T17:48:46.909Z,98.40
2018-10-17T17:51:15.330Z,98.30
2018-10-17T17:53:43.871Z,98.30
2018-10-17T17:56:14.133Z,98.40
2018-10-17T17:58:42.749Z,98.20
2018-10-17T18:01:11.934Z,98.50
2018-10-17T18:03:40.390Z,98.30
2018-10-17T18:06:08.950Z,98.20
2018-10-17T18:08:37.455Z,98.20
2018-10-17T18:11:17.594Z,98.20
2018-10-17T18:13:46.639Z,98.40
2018-10-17T18:16:15.231Z,98.20
2018-10-17T18:18:44.476Z,98.40
2018-10-17T18:21:13.276Z,98.40
2018-10-17T18:23:42.915Z,98.10
2018-10-17T18:26:12.014Z,98.20
2018-10-17T18:28:40.881Z,98.40
2018-10-17T18:31:09.500Z,98.50
2018-10-17T18:33:37.974Z,98.70
2018-10-17T18:36:06.498Z,98.60
2018-10-17T18:38:35.008Z,98.50
2018-10-17T18:41:04.781Z,98.40
2018-10-17T18:43:33.254Z,98.60
2018-10-17T18:46:01.771Z,98.50
2018-10-17T18:48:31.091Z,98.70
2018-10-17T18:50:59.660Z,98.80
2018-10-17T18:53:28.117Z,99.00
2018-10-17T18:55:57.480Z,99.20
2018-10-17T18:58:26.034Z,98.80
2018-10-17T19:00:54.512Z,98.80
2018-10-17T19:03:23.485Z,98.80
2018-10-17T19:05:51.949Z,99.00
2018-10-17T19:08:20.548Z,98.90
2018-10-17T19:10:48.909Z,99.00
2018-10-17T19:13:17.336Z,98.90
2018-10-17T19:15:45.931Z,99.10
2018-10-17T19:18:14.408Z,99.20
2018-10-17T19:20:42.857Z,99.20
2018-10-17T19:23:11.325Z,99.10
2018-10-17T19:25:40.557Z,98.90
2018-10-17T19:28:10.047Z,99.30
2018-10-17T19:30:38.557Z,98.90
2018-10-17T19:33:07.160Z,99.30
2018-10-17T19:35:35.613Z,99.50
2018-10-17T19:38:05.009Z,99.60
2018-10-17T19:40:33.473Z,99.20
2018-10-17T19:43:02.126Z,98.90
2018-10-17T19:45:31.547Z,98.90
2018-10-17T19:48:00.949Z,99.20
2018-10-17T19:50:29.355Z,99.20
2018-10-17T19:52:57.828Z,99.10
2018-10-17T19:55:26.302Z,99.20
2018-10-17T19:57:54.780Z,99.60
2018-10-17T20:00:23.240Z,99.70
2018-10-17T20:02:51.682Z,99.40
2018-10-17T20:05:20.155Z,99.10
2018-10-17T20:07:48.656Z,99.10
2018-10-17T20:10:17.108Z,99.10
2018-10-17T20:12:45.569Z,99.20
2018-10-17T20:15:14.142Z,99.30
2018-10-17T20:17:42.522Z,99.40
2018-10-17T20:20:11.004Z,99.60
2018-10-17T20:22:39.482Z,99.60
2018-10-17T20:25:08.084Z,99.80
2018-10-17T20:27:36.497Z,99.70
2018-10-17T20:30:06.068Z,99.80
2018-10-17T20:32:34.530Z,99.70
2018-10-17T20:35:03.032Z,99.70
2018-10-17T20:37:31.547Z,99.90
2018-10-17T20:40:00.038Z,99.70
2018-10-17T20:42:28.516Z,99.70
2018-10-17T20:44:57.036Z,99.70
2018-10-17T20:47:25.509Z,99.80
2018-10-17T20:49:53.983Z,99.90
2018-10-17T20:52:22.474Z,99.70
2018-10-17T20:54:51.133Z,99.90
2018-10-17T20:57:19.610Z,99.90
2018-10-17T20:59:49.821Z,99.90
2018-10-17T21:02:18.359Z,99.70
2018-10-17T21:04:46.774Z,99.70
2018-10-17T21:07:15.273Z,99.70
2018-10-17T21:09:43.777Z,99.90
2018-10-17T21:12:12.235Z,99.90
2018-10-17T21:14:41.817Z,99.90
2018-10-17T21:17:10.269Z,99.90
2018-10-17T21:19:38.778Z,99.90
2018-10-17T21:22:07.235Z,99.90
2018-10-17T21:24:35.677Z,99.90
2018-10-17T21:27:05.186Z,99.90
2018-10-17T21:29:33.594Z,99.80
2018-10-17T21:32:02.349Z,99.70
2018-10-17T21:34:32.181Z,99.70
2018-10-17T21:37:00.951Z,99.70
2018-10-17T21:39:30.445Z,99.30
2018-10-17T21:41:59.118Z,99.60
2018-10-17T21:44:27.851Z,99.50
2018-10-17T21:46:56.664Z,99.60
2018-10-17T21:49:25.501Z,99.90
2018-10-17T21:51:53.974Z,99.70
2018-10-17T21:54:22.650Z,99.80
2018-10-17T21:56:53.577Z,99.90
2018-10-17T21:59:22.410Z,99.90
2018-10-17T22:01:50.941Z,99.90
2018-10-17T22:04:19.590Z,99.90
2018-10-17T22:06:48.337Z,99.90
2018-10-17T22:09:16.797Z,99.90
2018-10-17T22:11:45.636Z,99.90
2018-10-17T22:14:14.161Z,99.90
2018-10-17T22:16:47.870Z,99.90
2018-10-17T22:19:16.495Z,99.90
2018-10-17T22:21:44.814Z,99.90
2018-10-17T22:24:13.291Z,99.90
2018-10-17T22:26:41.744Z,99.90
2018-10-17T22:29:10.153Z,99.90
2018-10-17T22:31:38.665Z,99.90
2018-10-17T22:34:07.138Z,99.90
2018-10-17T22:36:35.568Z,99.90
2018-10-17T22:39:05.845Z,99.90
2018-10-17T22:41:34.267Z,99.90
2018-10-17T22:44:02.806Z,99.90
2018-10-17T22:46:31.248Z,99.90
2018-10-17T22:48:59.725Z,99.90
2018-10-17T22:51:28.146Z,99.90
2018-10-17T22:53:56.613Z,99.90
2018-10-17T22:56:25.068Z,99.90
2018-10-17T22:58:53.513Z,99.90
2018-10-17T23:01:21.960Z,99.90
2018-10-17T23:03:50.674Z,99.90
2018-10-17T23:06:19.172Z,99.90
2018-10-17T23:08:47.598Z,99.90
2018-10-17T23:11:16.054Z,99.90
2018-10-17T23:13:44.540Z,99.90
2018-10-17T23:16:13.057Z,99.90
2018-10-17T23:18:41.629Z,99.90
2018-10-17T23:21:10.063Z,99.90
2018-10-17T23:23:38.526Z,99.90
2018-10-17T23:26:07.519Z,99.90
2018-10-17T23:28:36.136Z,99.90
2018-10-17T23:31:04.644Z,99.90
2018-10-17T23:33:33.089Z,99.90
2018-10-17T23:36:02.996Z,99.90
2018-10-17T23:38:31.498Z,99.90
2018-10-17T23:40:59.971Z,99.90
2018-10-17T23:43:28.450Z,99.90
2018-10-17T23:45:57.005Z,99.90
2018-10-17T23:48:25.401Z,99.90
2018-10-17T23:50:53.818Z,99.90
2018-10-17T23:53:22.272Z,99.90
2018-10-17T23:55:50.756Z,99.90
2018-10-17T23:58:19.207Z,99.90
